createdAt,value
2022-09-07T00:00:38.324Z,9.17
2022-09-07T00:03:07.662Z,8.87
2022-09-07T00:05:43.150Z,9.40
2022-09-07T00:08:10.218Z,9.63
2022-09-07T00:10:37.672Z,9.10
2022-09-07T00:13:05.713Z,9.27
2022-09-07T00:15:32.530Z,9.27
2022-09-07T00:18:05.036Z,8.93
2022-09-07T00:20:31.532Z,10.10
2022-09-07T00:22:59.540Z,9.13
2022-09-07T00:25:26.375Z,9.90
2022-09-07T00:27:53.354Z,9.70
2022-09-07T00:30:19.816Z,9.57
2022-09-07T00:32:46.325Z,9.73
2022-09-07T00:35:12.799Z,9.53
2022-09-07T00:37:39.262Z,8.97
2022-09-07T00:40:06.533Z,9.90
2022-09-07T00:42:33.032Z,10.03
2022-09-07T00:45:14.727Z,9.80
2022-09-07T00:48:02.323Z,9.57
2022-09-07T00:50:39.648Z,9.87
2022-09-07T00:53:19.303Z,10.30
2022-09-07T00:55:48.765Z,9.93
2022-09-07T00:58:16.471Z,10.17
2022-09-07T01:00:45.503Z,10.20
2022-09-07T01:03:14.333Z,10.20
2022-09-07T01:05:50.801Z,10.10
2022-09-07T01:08:17.658Z,11.23
2022-09-07T01:10:44.245Z,10.20
2022-09-07T01:13:10.717Z,9.30
2022-09-07T01:16:05.019Z,9.87
2022-09-07T01:18:43.594Z,11.00
2022-09-07T01:21:41.721Z,11.17
2022-09-07T01:24:17.960Z,10.53
2022-09-07T01:27:24.402Z,10.57
2022-09-07T01:30:13.610Z,9.13
2022-09-07T01:33:16.944Z,10.47
2022-09-07T01:36:05.070Z,10.03
2022-09-07T01:38:46.589Z,11.20
2022-09-07T01:41:39.039Z,11.10
2022-09-07T01:44:11.610Z,10.90
2022-09-07T01:46:52.369Z,11.63
2022-09-07T01:49:25.355Z,11.60
2022-09-07T01:51:58.716Z,11.03
2022-09-07T01:54:35.018Z,11.03
2022-09-07T01:57:06.361Z,11.03
2022-09-07T01:59:39.406Z,11.97
2022-09-07T02:02:13.422Z,10.17
2022-09-07T02:04:46.908Z,10.87
2022-09-07T02:07:27.938Z,10.33
2022-09-07T02:10:04.045Z,10.80
2022-09-07T02:12:40.588Z,10.70
2022-09-07T02:15:14.311Z,11.00
2022-09-07T02:17:51.394Z,11.83
2022-09-07T02:20:27.231Z,10.83
2022-09-07T02:23:02.388Z,11.43
2022-09-07T02:25:35.095Z,11.07
2022-09-07T02:28:09.854Z,11.30
2022-09-07T02:30:37.305Z,11.77
2022-09-07T02:33:04.285Z,11.80
2022-09-07T02:35:31.186Z,11.10
2022-09-07T02:38:04.353Z,11.97
2022-09-07T02:40:31.827Z,11.43
2022-09-07T02:43:09.620Z,11.13
2022-09-07T02:46:17.739Z,11.20
2022-09-07T02:49:14.875Z,10.90
2022-09-07T02:51:47.317Z,11.67
2022-09-07T02:54:30.000Z,12.27
2022-09-07T02:57:34.455Z,10.93
2022-09-07T03:00:08.429Z,11.17
2022-09-07T03:02:53.479Z,10.20
2022-09-07T03:05:39.672Z,10.83
2022-09-07T03:08:12.019Z,11.30
2022-09-07T03:10:41.831Z,9.10
2022-09-07T03:13:08.538Z,9.50
2022-09-07T03:15:35.104Z,9.20
2022-09-07T03:18:03.363Z,9.90
2022-09-07T03:20:29.864Z,9.83
2022-09-07T03:22:56.543Z,9.07
2022-09-07T03:25:23.211Z,9.60
2022-09-07T03:27:49.766Z,9.43
2022-09-07T03:30:16.344Z,9.63
2022-09-07T03:32:42.903Z,9.60
2022-09-07T03:35:09.876Z,9.83
2022-09-07T03:37:37.300Z,9.37
2022-09-07T03:40:06.690Z,8.77
2022-09-07T03:42:33.414Z,9.67
2022-09-07T03:45:00.018Z,9.73
2022-09-07T03:47:28.306Z,9.20
2022-09-07T03:49:55.037Z,9.10
2022-09-07T03:52:21.561Z,8.77
2022-09-07T03:54:48.117Z,9.17
2022-09-07T03:57:14.646Z,8.90
2022-09-07T03:59:41.171Z,8.77
2022-09-07T04:02:07.773Z,8.90
2022-09-07T04:04:34.345Z,8.17
2022-09-07T04:07:01.081Z,8.50
2022-09-07T04:09:28.479Z,8.83
2022-09-07T04:11:55.260Z,8.77
2022-09-07T04:14:22.004Z,9.23
2022-09-07T04:16:48.884Z,10.27
2022-09-07T04:19:15.423Z,9.73
2022-09-07T04:21:46.686Z,9.23
2022-09-07T04:24:17.474Z,9.43
2022-09-07T04:26:44.801Z,10.00
2022-09-07T04:29:12.378Z,8.87
2022-09-07T04:31:39.653Z,8.63
2022-09-07T04:34:07.440Z,8.83
2022-09-07T04:36:34.471Z,9.37
2022-09-07T04:39:03.250Z,8.30
2022-09-07T04:41:31.379Z,9.00
2022-09-07T04:44:00.887Z,8.40
2022-09-07T04:46:30.326Z,7.80
2022-09-07T04:48:59.311Z,8.73
2022-09-07T04:51:29.006Z,8.30
2022-09-07T04:53:59.781Z,8.57
2022-09-07T04:56:27.078Z,8.17
2022-09-07T04:58:54.435Z,8.63
2022-09-07T05:01:24.645Z,8.43
2022-09-07T05:03:51.535Z,8.70
2022-09-07T05:06:19.446Z,7.90
2022-09-07T05:08:48.771Z,7.77
2022-09-07T05:11:16.278Z,8.83
2022-09-07T05:13:42.935Z,9.30
2022-09-07T05:16:21.502Z,8.90
2022-09-07T05:18:59.776Z,8.83
2022-09-07T05:21:28.515Z,9.63
2022-09-07T05:24:01.151Z,9.83
2022-09-07T05:26:30.707Z,10.70
2022-09-07T05:31:50.885Z,11.23
2022-09-07T05:34:33.260Z,11.10
2022-09-07T05:37:01.108Z,12.27
2022-09-07T05:39:28.423Z,12.13
2022-09-07T05:41:55.722Z,12.53
2022-09-07T05:47:09.970Z,14.00
2022-09-07T05:49:36.494Z,13.03
2022-09-07T05:52:03.197Z,13.60
2022-09-07T05:54:29.925Z,13.53
2022-09-07T05:56:56.763Z,13.97
2022-09-07T05:59:23.617Z,15.07
2022-09-07T06:01:50.300Z,15.20
2022-09-07T06:04:16.828Z,14.20
2022-09-07T06:06:47.830Z,13.60
2022-09-07T06:09:29.834Z,14.80
2022-09-07T06:11:57.794Z,15.00
2022-09-07T06:14:25.030Z,13.77
2022-09-07T06:16:51.568Z,15.00
2022-09-07T06:19:18.058Z,15.20
2022-09-07T06:21:44.457Z,16.03
2022-09-07T06:24:11.084Z,17.13
2022-09-07T06:26:37.589Z,15.40
2022-09-07T06:29:04.018Z,15.77
2022-09-07T06:31:30.931Z,13.93
2022-09-07T06:33:58.231Z,14.70
2022-09-07T06:36:29.884Z,14.23
2022-09-07T06:39:01.389Z,12.40
2022-09-07T06:44:19.997Z,13.80
2022-09-07T06:49:28.662Z,12.37
2022-09-07T06:51:55.750Z,14.27
2022-09-07T06:57:09.391Z,12.87
2022-09-07T06:59:36.617Z,11.93
2022-09-07T07:02:04.147Z,11.20
2022-09-07T07:04:32.399Z,12.93
2022-09-07T07:07:01.105Z,12.90
2022-09-07T07:09:27.735Z,12.17
2022-09-07T07:11:55.087Z,10.97
2022-09-07T07:14:21.683Z,12.73
2022-09-07T07:16:48.181Z,10.70
2022-09-07T07:19:14.794Z,12.60
2022-09-07T07:22:07.820Z,11.57
2022-09-07T07:24:29.772Z,9.80
2022-09-07T07:26:56.707Z,11.07
2022-09-07T07:29:25.103Z,10.03
2022-09-07T07:32:02.232Z,10.03
2022-09-07T07:34:29.076Z,10.63
2022-09-07T07:36:55.884Z,10.97
2022-09-07T07:42:08.993Z,10.50
2022-09-07T07:44:35.393Z,9.77
2022-09-07T07:47:02.636Z,9.97
2022-09-07T07:49:29.074Z,10.37
2022-09-07T07:54:43.154Z,9.83
2022-09-07T07:57:09.669Z,10.50
2022-09-07T07:59:36.108Z,10.17
2022-09-07T08:02:08.706Z,10.27
2022-09-07T08:04:35.824Z,9.23
2022-09-07T08:07:09.599Z,10.77
2022-09-07T08:09:41.728Z,9.97
2022-09-07T08:12:11.082Z,9.07
2022-09-07T08:14:43.149Z,8.67
2022-09-07T08:17:11.151Z,8.87
2022-09-07T08:19:38.202Z,10.30
2022-09-07T08:22:05.302Z,9.10
2022-09-07T08:24:32.103Z,8.77
2022-09-07T08:26:59.192Z,9.37
2022-09-07T08:29:27.143Z,8.60
2022-09-07T08:31:54.143Z,9.37
2022-09-07T08:34:21.786Z,8.83
2022-09-07T08:36:48.261Z,9.70
2022-09-07T08:39:14.754Z,8.00
2022-09-07T08:42:08.698Z,9.10
2022-09-07T08:44:41.420Z,9.50
2022-09-07T08:47:32.036Z,9.00
2022-09-07T08:50:09.756Z,9.03
2022-09-07T08:52:50.711Z,8.70
2022-09-07T08:55:38.885Z,8.73
2022-09-07T08:58:32.252Z,7.90
2022-09-07T09:06:59.415Z,8.57
2022-09-07T09:09:41.624Z,8.57
2022-09-07T09:12:26.817Z,8.27
2022-09-07T09:15:31.067Z,8.60
2022-09-07T09:18:19.401Z,8.30
2022-09-07T09:20:52.242Z,8.47
2022-09-07T09:23:20.262Z,8.40
2022-09-07T09:25:52.912Z,9.30
2022-09-07T09:28:19.514Z,7.83
2022-09-07T09:30:47.843Z,8.83
2022-09-07T09:33:14.298Z,7.80
2022-09-07T09:35:41.335Z,8.37
2022-09-07T09:38:39.483Z,7.97
2022-09-07T09:41:12.020Z,8.40
2022-09-07T09:43:45.793Z,8.20
2022-09-07T09:46:20.787Z,9.70
2022-09-07T09:48:55.977Z,9.00
2022-09-07T09:54:24.928Z,6.33
2022-09-07T09:56:52.141Z,7.27
2022-09-07T10:05:33.219Z,6.97
2022-09-07T10:08:00.072Z,7.23
2022-09-07T10:10:28.831Z,6.60
2022-09-07T10:12:56.369Z,6.70
2022-09-07T10:15:39.723Z,6.53
2022-09-07T10:18:16.198Z,6.57
2022-09-07T10:20:42.748Z,4.63
2022-09-07T10:23:21.221Z,5.60
2022-09-07T10:25:47.881Z,6.03
2022-09-07T10:28:22.618Z,6.03
2022-09-07T10:31:31.921Z,5.80
2022-09-07T10:34:32.185Z,5.03
2022-09-07T10:37:08.409Z,5.35
2022-09-07T10:39:39.250Z,5.50
2022-09-07T10:42:15.917Z,5.85
2022-09-07T10:45:30.217Z,6.00
2022-09-07T10:48:27.758Z,5.72
2022-09-07T10:51:05.025Z,5.28
2022-09-07T10:53:46.327Z,6.55
2022-09-07T10:56:21.554Z,6.10
2022-09-07T10:59:26.766Z,6.45
2022-09-07T11:02:21.158Z,7.18
2022-09-07T11:05:00.026Z,5.68
2022-09-07T11:07:47.749Z,6.55
2022-09-07T11:10:26.076Z,5.88
2022-09-07T11:12:58.503Z,5.00
2022-09-07T11:15:28.987Z,6.63
2022-09-07T11:18:01.311Z,3.40
2022-09-07T11:20:30.325Z,3.80
2022-09-07T11:23:07.047Z,3.83
2022-09-07T11:25:40.695Z,3.50
2022-09-07T11:28:20.964Z,2.15
2022-09-07T11:31:01.180Z,2.38
2022-09-07T11:33:33.900Z,2.10
2022-09-07T11:36:11.946Z,2.25
2022-09-07T11:38:47.498Z,2.33
2022-09-07T11:41:19.873Z,2.30
2022-09-07T11:43:50.622Z,2.30
2022-09-07T11:46:43.448Z,2.47
2022-09-07T11:49:19.194Z,2.50
2022-09-07T11:52:05.923Z,2.70
2022-09-07T11:54:38.553Z,2.45
2022-09-07T11:57:13.995Z,2.58
2022-09-07T12:00:13.048Z,2.35
2022-09-07T12:03:19.804Z,2.40
2022-09-07T12:06:19.165Z,2.50
2022-09-07T12:09:10.937Z,2.38
2022-09-07T12:12:10.607Z,2.20
2022-09-07T12:14:54.113Z,2.00
2022-09-07T12:17:47.733Z,2.20
2022-09-07T12:20:21.611Z,2.10
2022-09-07T12:23:04.551Z,2.20
2022-09-07T12:25:33.630Z,2.20
2022-09-07T12:28:25.389Z,2.30
2022-09-07T12:31:02.366Z,2.00
2022-09-07T12:33:33.458Z,2.35
2022-09-07T12:36:01.504Z,1.90
2022-09-07T12:38:30.725Z,1.88
2022-09-07T12:41:03.942Z,2.10
2022-09-07T12:43:33.422Z,2.17
2022-09-07T12:46:01.502Z,2.00
2022-09-07T12:48:52.767Z,2.13
2022-09-07T12:54:52.762Z,1.75
2022-09-07T12:57:58.460Z,2.00
2022-09-07T13:01:00.109Z,2.10
2022-09-07T13:03:52.742Z,1.75
2022-09-07T13:09:28.471Z,2.00
2022-09-07T13:11:57.036Z,1.80
2022-09-07T13:14:38.427Z,1.70
2022-09-07T13:17:27.911Z,1.70
2022-09-07T13:20:05.034Z,1.40
2022-09-07T13:22:35.281Z,1.60
2022-09-07T13:25:25.106Z,1.50
2022-09-07T13:28:03.106Z,1.58
2022-09-07T13:31:04.961Z,1.50
2022-09-07T13:33:34.580Z,1.50
2022-09-07T13:36:06.094Z,1.70
2022-09-07T13:38:36.360Z,1.30
2022-09-07T13:41:12.378Z,1.52
2022-09-07T13:43:39.948Z,1.60
2022-09-07T13:46:18.027Z,1.60
2022-09-07T13:48:50.200Z,1.67
2022-09-07T13:51:39.802Z,1.50
2022-09-07T13:54:42.255Z,1.70
2022-09-07T13:57:31.533Z,1.60
2022-09-07T13:59:59.564Z,1.60
2022-09-07T14:02:33.998Z,1.50
2022-09-07T14:05:01.793Z,1.60
2022-09-07T14:07:30.431Z,1.65
2022-09-07T14:10:17.531Z,1.85
2022-09-07T14:13:08.258Z,1.50
2022-09-07T14:15:43.541Z,1.65
2022-09-07T14:18:19.461Z,1.42
2022-09-07T14:20:49.594Z,1.77
2022-09-07T14:23:23.812Z,1.50
2022-09-07T14:26:17.283Z,1.63
2022-09-07T14:28:46.467Z,1.58
2022-09-07T14:31:15.944Z,1.40
2022-09-07T14:34:00.539Z,1.42
2022-09-07T14:36:46.501Z,1.73
2022-09-07T14:39:17.136Z,1.75
2022-09-07T14:41:44.592Z,1.77
2022-09-07T14:44:31.848Z,1.88
2022-09-07T14:47:10.606Z,1.90
2022-09-07T14:49:37.547Z,2.00
2022-09-07T14:52:04.318Z,1.90
2022-09-07T14:54:34.060Z,1.80
2022-09-07T14:57:27.551Z,1.80
2022-09-07T14:59:56.778Z,1.80
2022-09-07T15:02:35.672Z,1.98
2022-09-07T15:05:14.585Z,2.08
2022-09-07T15:07:46.045Z,2.13
2022-09-07T15:10:35.133Z,2.10
2022-09-07T15:13:03.994Z,2.38
2022-09-07T15:15:32.106Z,2.30
2022-09-07T15:18:08.259Z,2.10
2022-09-07T15:20:40.970Z,2.30
2022-09-07T15:23:15.738Z,2.65
2022-09-07T15:25:48.162Z,2.22
2022-09-07T15:34:09.971Z,1.95
2022-09-07T15:36:37.885Z,2.28
2022-09-07T15:39:05.049Z,2.30
2022-09-07T15:41:32.341Z,2.15
2022-09-07T15:44:00.078Z,2.55
2022-09-07T15:46:27.710Z,1.95
2022-09-07T15:48:55.682Z,2.13
2022-09-07T15:54:13.115Z,2.05
2022-09-07T15:56:41.790Z,2.28
2022-09-07T15:59:10.496Z,2.50
2022-09-07T16:01:54.715Z,2.53
2022-09-07T16:04:24.032Z,2.83
2022-09-07T16:06:50.902Z,2.70
2022-09-07T16:09:17.489Z,3.00
2022-09-07T16:11:44.326Z,3.00
2022-09-07T16:14:12.322Z,2.90
2022-09-07T16:19:35.012Z,2.75
2022-09-07T16:22:03.058Z,2.80
2022-09-07T16:24:29.489Z,2.90
2022-09-07T16:26:56.581Z,2.63
2022-09-07T16:29:23.043Z,2.70
2022-09-07T16:34:36.074Z,3.28
2022-09-07T16:37:03.214Z,3.50
2022-09-07T16:39:33.020Z,3.35
2022-09-07T16:42:00.417Z,3.20
2022-09-07T16:44:27.963Z,3.05
2022-09-07T16:46:55.438Z,3.30
2022-09-07T16:49:22.506Z,3.40
2022-09-07T16:51:49.889Z,4.25
2022-09-07T16:54:16.980Z,3.53
2022-09-07T16:56:43.362Z,4.18
2022-09-07T16:59:15.871Z,4.00
2022-09-07T17:01:43.362Z,4.50
2022-09-07T17:04:11.447Z,5.63
2022-09-07T17:06:39.422Z,6.10
2022-09-07T17:09:07.158Z,6.28
2022-09-07T17:11:36.202Z,6.15
2022-09-07T17:14:06.957Z,6.45
2022-09-07T17:16:37.001Z,6.15
2022-09-07T17:21:53.559Z,6.70
2022-09-07T17:24:21.250Z,7.20
2022-09-07T17:26:47.869Z,8.03
2022-09-07T17:29:14.812Z,8.03
2022-09-07T17:34:31.971Z,8.13
2022-09-07T17:37:01.204Z,8.53
2022-09-07T17:39:28.549Z,8.53
2022-09-07T17:41:56.617Z,7.53
2022-09-07T17:44:23.484Z,8.07
2022-09-07T17:47:00.660Z,7.30
2022-09-07T17:49:29.323Z,8.10
2022-09-07T17:51:58.663Z,7.20
2022-09-07T17:54:26.616Z,6.80
2022-09-07T17:56:53.035Z,6.97
2022-09-07T18:02:05.971Z,7.97
2022-09-07T18:04:32.619Z,8.27
2022-09-07T18:07:07.023Z,7.70
2022-09-07T18:09:33.518Z,8.10
2022-09-07T18:12:00.544Z,8.63
2022-09-07T18:14:30.025Z,9.37
2022-09-07T18:16:59.389Z,8.80
2022-09-07T18:19:26.619Z,8.73
2022-09-07T18:21:53.230Z,9.40
2022-09-07T18:24:22.928Z,9.40
2022-09-07T18:26:52.266Z,8.90
2022-09-07T18:29:31.159Z,9.77
2022-09-07T18:32:04.437Z,8.67
2022-09-07T18:34:32.222Z,9.23
2022-09-07T18:37:04.632Z,9.60
2022-09-07T18:39:32.242Z,9.00
2022-09-07T18:42:23.273Z,7.77
2022-09-07T18:47:36.262Z,9.23
2022-09-07T18:50:07.146Z,8.20
2022-09-07T18:55:20.993Z,8.17
2022-09-07T18:57:47.448Z,8.63
2022-09-07T19:00:14.231Z,8.77
2022-09-07T19:02:41.196Z,9.43
2022-09-07T19:07:55.839Z,9.10
2022-09-07T19:10:22.982Z,9.83
2022-09-07T19:12:49.368Z,10.90
2022-09-07T19:15:15.850Z,11.87
2022-09-07T19:17:42.268Z,11.40
2022-09-07T19:20:09.631Z,11.47
2022-09-07T19:22:36.061Z,11.53
2022-09-07T19:25:03.894Z,11.17
2022-09-07T19:27:32.899Z,10.20
2022-09-07T19:30:03.000Z,10.40
2022-09-07T19:32:31.252Z,9.93
2022-09-07T19:35:00.586Z,9.50
2022-09-07T19:37:31.985Z,10.47
2022-09-07T19:39:59.878Z,11.60
2022-09-07T19:42:28.534Z,10.57
2022-09-07T19:44:55.737Z,11.27
2022-09-07T19:47:23.115Z,8.77
2022-09-07T19:49:49.605Z,9.80
2022-09-07T19:52:16.499Z,9.57
2022-09-07T19:54:43.784Z,10.43
2022-09-07T19:57:10.273Z,12.17
2022-09-07T19:59:36.675Z,9.77
2022-09-07T20:02:04.290Z,11.40
2022-09-07T20:04:30.940Z,11.33
2022-09-07T20:06:58.013Z,10.70
2022-09-07T20:09:27.598Z,11.37
2022-09-07T20:11:57.161Z,10.80
2022-09-07T20:14:23.809Z,9.90
2022-09-07T20:16:51.169Z,11.07
2022-09-07T20:19:18.230Z,11.67
2022-09-07T20:21:44.662Z,9.63
2022-09-07T20:24:12.162Z,9.20
2022-09-07T20:26:38.643Z,11.27
2022-09-07T20:29:26.059Z,12.17
2022-09-07T20:31:53.446Z,11.67
2022-09-07T20:34:20.129Z,10.87
2022-09-07T20:36:49.374Z,13.13
2022-09-07T20:39:16.491Z,12.30
2022-09-07T20:41:43.051Z,12.33
2022-09-07T20:44:09.486Z,12.03
2022-09-07T20:46:36.604Z,13.10
2022-09-07T20:49:04.755Z,13.97
2022-09-07T20:51:32.031Z,12.73
2022-09-07T20:53:58.825Z,12.37
2022-09-07T20:56:28.616Z,14.70
2022-09-07T20:59:05.465Z,13.93
2022-09-07T21:01:36.741Z,13.10
2022-09-07T21:04:04.103Z,12.10
2022-09-07T21:06:32.905Z,13.97
2022-09-07T21:09:06.522Z,14.53
2022-09-07T21:11:35.269Z,14.27
2022-09-07T21:14:07.454Z,14.77
2022-09-07T21:16:35.634Z,12.60
2022-09-07T21:19:05.642Z,14.33
2022-09-07T21:21:39.157Z,13.00
2022-09-07T21:24:12.828Z,14.80
2022-09-07T21:26:39.400Z,13.93
2022-09-07T21:29:05.896Z,12.77
2022-09-07T21:31:33.767Z,13.93
2022-09-07T21:34:02.346Z,13.80
2022-09-07T21:36:29.444Z,14.97
2022-09-07T21:38:56.001Z,15.20
2022-09-07T21:41:25.013Z,15.27
2022-09-07T21:44:03.006Z,12.90
2022-09-07T21:46:32.217Z,14.87
2022-09-07T21:49:00.213Z,14.87
2022-09-07T21:51:27.877Z,16.80
2022-09-07T21:53:57.351Z,16.97
2022-09-07T21:56:24.997Z,16.40
2022-09-07T21:58:58.806Z,14.63
2022-09-07T22:01:28.084Z,14.40
2022-09-07T22:04:00.447Z,14.50
2022-09-07T22:06:31.417Z,16.07
2022-09-07T22:08:58.756Z,15.93
2022-09-07T22:11:30.542Z,15.93
2022-09-07T22:14:02.901Z,15.50
2022-09-07T22:16:31.161Z,15.47
2022-09-07T22:18:58.840Z,16.03
2022-09-07T22:21:28.683Z,14.93
2022-09-07T22:24:00.156Z,14.90
2022-09-07T22:26:32.336Z,13.97
2022-09-07T22:29:00.359Z,15.50
2022-09-07T22:31:30.286Z,15.37
2022-09-07T22:34:00.263Z,15.30
2022-09-07T22:36:36.320Z,17.53
2022-09-07T22:39:10.181Z,16.03
2022-09-07T22:41:38.425Z,14.93
2022-09-07T22:44:06.449Z,17.60
2022-09-07T22:46:36.923Z,15.03
2022-09-07T22:49:05.402Z,14.70
2022-09-07T22:51:32.961Z,16.53
2022-09-07T22:54:03.605Z,15.53
2022-09-07T22:56:32.122Z,14.87
2022-09-07T22:59:03.574Z,15.73
2022-09-07T23:01:32.177Z,14.83
2022-09-07T23:04:00.649Z,15.50
2022-09-07T23:06:29.676Z,15.63
2022-09-07T23:09:03.044Z,16.07
2022-09-07T23:11:29.866Z,14.83
2022-09-07T23:14:00.385Z,14.40
2022-09-07T23:16:28.840Z,14.03
2022-09-07T23:18:58.844Z,14.40
2022-09-07T23:21:27.195Z,14.93
2022-09-07T23:23:56.956Z,14.57
2022-09-07T23:26:26.062Z,13.57
2022-09-07T23:28:57.768Z,15.30
2022-09-07T23:31:28.798Z,15.00
2022-09-07T23:33:58.067Z,15.20
2022-09-07T23:36:26.174Z,13.60
2022-09-07T23:39:13.159Z,16.23
2022-09-07T23:41:39.603Z,16.87
2022-09-07T23:44:06.018Z,16.20
2022-09-07T23:46:33.148Z,17.63
2022-09-07T23:49:00.251Z,19.20
2022-09-07T23:51:27.380Z,18.47
2022-09-07T23:53:54.017Z,20.10
2022-09-07T23:56:24.688Z,21.07
2022-09-07T23:58:51.453Z,21.50
